Onweerkansen (GFS)

Untitled Document





Vliegweer

[Source: ADDS]
METAR
EBBR 190820Z 19009KT 9999 BKN017 08/06 Q1011 NOSIG =
EBBR 190500Z 1906/2012 19010KT 9999 BKN012 BECMG 1907/1909 BKN025 PROB30 TEMPO 1910/1914 4000 SHRA SCT010 BKN014TCU PROB30 TEMPO 1921/2012 3000 SHRA SCT008 BKN012CB
TAF
EBBR 190500Z 1906/2012 19010KT 9999 BKN012 BECMG 1907/1909 BKN025 PROB30 TEMPO 1910/1914 4000 SHRA SCT010 BKN014TCU PROB30 TEMPO 1921/2012 3000 SHRA SCT008 BKN012CB =

StormCell is een non profit organisatie zonder oogmerk tot sensatie